createdAt,value
2018-09-22T05:24:29.168Z,94962.64
2018-09-22T05:26:58.071Z,94967.11
2018-09-22T05:29:26.828Z,94971.04
2018-09-22T05:31:55.573Z,94973.09
2018-09-22T05:34:24.353Z,94972.86
2018-09-22T05:36:53.112Z,94976.16
2018-09-22T05:39:21.939Z,94975.45
2018-09-22T05:41:50.688Z,94978.86
2018-09-22T05:44:19.300Z,94982.42
2018-09-22T05:46:47.980Z,94989.95
2018-09-22T05:49:16.653Z,94986.89
2018-09-22T05:51:45.481Z,94988.03
2018-09-22T05:54:14.977Z,94988.12
2018-09-22T05:56:43.661Z,94986.04
2018-09-22T05:59:12.391Z,94986.97
2018-09-22T06:01:41.100Z,94991.75
2018-09-22T06:04:09.864Z,94993.97
2018-09-22T06:06:38.553Z,94999.64
2018-09-22T06:09:09.416Z,95000.58
2018-09-22T06:11:38.244Z,94998.73
2018-09-22T06:14:07.137Z,94997.95
2018-09-22T06:16:35.862Z,95001.52
2018-09-22T06:19:04.571Z,94999.34
2018-09-22T06:21:33.364Z,95003.27
2018-09-22T06:24:02.136Z,95001.80
2018-09-22T06:26:30.868Z,95005.73
2018-09-22T06:28:59.521Z,95004.33
2018-09-22T06:31:28.322Z,95002.34
2018-09-22T06:33:57.011Z,95009.44
2018-09-22T06:36:26.166Z,95001.36
2018-09-22T06:38:55.037Z,95006.55
2018-09-22T06:41:23.867Z,95010.08
2018-09-22T06:43:52.659Z,95016.57
2018-09-22T06:46:21.487Z,95022.05
2018-09-22T06:48:50.187Z,95017.14
2018-09-22T06:51:19.541Z,95022.80
2018-09-22T06:53:48.220Z,95025.52
2018-09-22T06:56:16.955Z,95033.48
2018-09-22T06:58:45.663Z,95032.90
2018-09-22T07:01:14.512Z,95030.16
2018-09-22T07:03:43.167Z,95033.39
2018-09-22T07:06:11.982Z,95026.72
2018-09-22T07:08:40.713Z,95027.72
2018-09-22T07:11:09.407Z,95023.95
2018-09-22T07:13:38.111Z,95027.97
2018-09-22T07:16:06.935Z,95030.57
2018-09-22T07:18:35.672Z,95027.02
2018-09-22T07:21:06.381Z,95026.59
2018-09-22T07:23:35.046Z,95020.42
2018-09-22T07:26:04.243Z,95017.58
2018-09-22T07:28:33.075Z,95014.81
2018-09-22T07:31:01.792Z,95011.34
2018-09-22T07:33:30.452Z,95009.60
2018-09-22T07:35:59.115Z,95015.30
2018-09-22T07:38:27.767Z,95018.19
2018-09-22T07:40:56.462Z,95008.21
2018-09-22T07:45:50.333Z,95009.87
2018-09-22T07:48:19.008Z,95004.93
2018-09-22T07:50:47.688Z,94993.27
2018-09-22T07:53:16.360Z,94999.35
2018-09-22T07:55:45.112Z,94993.37
2018-09-22T07:58:13.839Z,94993.92
2018-09-22T08:00:42.643Z,94988.95
2018-09-22T08:03:11.335Z,94993.64
2018-09-22T08:05:40.039Z,94985.60
2018-09-22T08:08:08.890Z,94987.68
2018-09-22T08:10:37.622Z,94981.88
2018-09-22T08:13:06.739Z,94981.13
2018-09-22T08:15:35.387Z,94981.61
2018-09-22T08:18:04.051Z,94986.66
2018-09-22T08:20:32.793Z,94983.85
2018-09-22T08:23:01.602Z,94970.91
2018-09-22T08:25:30.281Z,94977.29
2018-09-22T08:27:59.019Z,94978.66
2018-09-22T08:30:29.126Z,94978.95
2018-09-22T08:32:58.017Z,94981.39
2018-09-22T08:35:26.785Z,94977.43
2018-09-22T08:37:55.443Z,94977.66
2018-09-22T08:40:24.111Z,94972.14
2018-09-22T08:42:52.833Z,94969.55
2018-09-22T08:45:21.862Z,94971.30
2018-09-22T08:47:50.553Z,94961.72
2018-09-22T08:50:19.312Z,94960.70
2018-09-22T08:52:48.011Z,94962.07
2018-09-22T08:55:16.796Z,94959.12
2018-09-22T08:57:45.451Z,94947.72
2018-09-22T09:00:14.276Z,94942.68
2018-09-22T09:02:42.988Z,94950.31
2018-09-22T09:05:11.855Z,94950.98
2018-09-22T09:07:40.560Z,94951.08
2018-09-22T09:10:09.400Z,94947.23
2018-09-22T09:12:38.111Z,94944.06
2018-09-22T09:15:06.967Z,94949.95
2018-09-22T09:17:35.581Z,94937.46
2018-09-22T09:20:04.372Z,94938.91
2018-09-22T09:22:33.078Z,94940.31
2018-09-22T09:25:01.901Z,94942.87
2018-09-22T09:27:30.677Z,94937.75
2018-09-22T09:29:59.403Z,94930.67
2018-09-22T09:32:28.128Z,94930.20
2018-09-22T09:34:56.990Z,94926.51
2018-09-22T09:37:25.646Z,94932.34
2018-09-22T09:39:54.432Z,94932.41
2018-09-22T09:42:23.191Z,94931.28
2018-09-22T09:44:51.997Z,94930.20
2018-09-22T09:47:21.553Z,94925.72
2018-09-22T09:49:50.777Z,94932.23
2018-09-22T09:52:19.509Z,94924.76
2018-09-22T09:54:48.330Z,94924.34
2018-09-22T09:57:17.153Z,94919.73
2018-09-22T09:59:46.923Z,94916.06
2018-09-22T10:02:15.647Z,94914.64
2018-09-22T10:04:44.409Z,94916.55
2018-09-22T10:07:13.115Z,94914.03
2018-09-22T10:09:41.817Z,94913.25
2018-09-22T10:12:10.484Z,94911.59
2018-09-22T10:14:39.296Z,94912.75
2018-09-22T10:17:08.621Z,94917.50
2018-09-22T10:19:37.287Z,94911.23
2018-09-22T10:22:06.004Z,94917.03
2018-09-22T10:24:34.757Z,94913.91
2018-09-22T10:27:03.455Z,94911.73
2018-09-22T10:29:32.242Z,94905.75
2018-09-22T10:32:01.089Z,94898.25
2018-09-22T10:34:29.851Z,94898.56
2018-09-22T10:36:58.589Z,94896.64
2018-09-22T10:39:27.322Z,94894.16
2018-09-22T10:41:56.029Z,94902.05
2018-09-22T10:44:24.785Z,94890.41
2018-09-22T10:46:53.589Z,94895.10
2018-09-22T10:49:22.784Z,94890.58
2018-09-22T10:51:52.126Z,94889.56
2018-09-22T10:54:20.837Z,94884.66
2018-09-22T10:56:49.488Z,94884.72
2018-09-22T10:59:18.140Z,94881.46
2018-09-22T11:01:46.818Z,94878.50
2018-09-22T11:04:15.455Z,94876.81
2018-09-22T11:06:44.139Z,94874.42
2018-09-22T11:09:12.840Z,94867.41
2018-09-22T11:11:41.585Z,94872.03
2018-09-22T11:14:10.267Z,94865.31
2018-09-22T11:16:39.193Z,94860.36
2018-09-22T11:19:07.880Z,94854.11
2018-09-22T11:21:36.582Z,94858.91
2018-09-22T11:24:05.336Z,94857.17
2018-09-22T11:26:34.107Z,94852.28
2018-09-22T11:29:02.985Z,94852.30
2018-09-22T11:31:31.825Z,94850.73
2018-09-22T11:34:00.616Z,94849.15
2018-09-22T11:36:29.364Z,94842.25
2018-09-22T11:38:58.228Z,94837.28
2018-09-22T11:41:27.039Z,94840.22
2018-09-22T11:43:55.806Z,94836.77
2018-09-22T11:46:24.654Z,94831.16
2018-09-22T11:48:53.389Z,94838.29
2018-09-22T11:51:22.117Z,94833.20
2018-09-22T11:53:50.795Z,94835.34
2018-09-22T11:56:19.482Z,94833.88
2018-09-22T11:58:48.319Z,94837.11
2018-09-22T12:01:17.030Z,94828.22
2018-09-22T12:03:45.740Z,94824.09
2018-09-22T12:06:14.538Z,94820.44
2018-09-22T12:08:43.336Z,94829.25
2018-09-22T12:11:12.076Z,94825.44
2018-09-22T12:13:40.724Z,94824.20
2018-09-22T12:16:09.491Z,94826.41
2018-09-22T12:18:38.252Z,94810.86
2018-09-22T12:21:07.305Z,94806.31
2018-09-22T12:23:35.996Z,94807.81
2018-09-22T12:26:04.663Z,94803.66
2018-09-22T12:28:33.359Z,94806.75
2018-09-22T12:31:02.232Z,94811.80
2018-09-22T12:33:30.955Z,94809.27
2018-09-22T12:36:00.003Z,94813.59
2018-09-22T12:38:28.750Z,94812.59
2018-09-22T12:40:57.544Z,94816.69
2018-09-22T12:43:26.233Z,94809.13
2018-09-22T12:45:54.952Z,94804.77
2018-09-22T12:48:23.624Z,94809.54
2018-09-22T12:50:52.298Z,94811.23
2018-09-22T12:53:20.962Z,94812.87
2018-09-22T12:55:49.631Z,94809.89
2018-09-22T12:58:18.420Z,94810.63
2018-09-22T13:00:47.144Z,94809.56
2018-09-22T13:03:15.903Z,94805.14
2018-09-22T13:05:44.584Z,94806.49
2018-09-22T13:08:13.350Z,94806.69
2018-09-22T13:10:42.045Z,94805.67
2018-09-22T13:13:10.720Z,94811.25
2018-09-22T13:15:39.473Z,94813.74
2018-09-22T13:18:08.306Z,94810.20
2018-09-22T13:20:37.021Z,94804.70
2018-09-22T13:23:06.178Z,94796.89
2018-09-22T13:25:34.902Z,94797.29
2018-09-22T13:28:03.599Z,94786.44
2018-09-22T13:30:32.267Z,94790.19
2018-09-22T13:33:01.016Z,94788.23
2018-09-22T13:35:29.679Z,94785.97
2018-09-22T13:37:58.346Z,94787.68
2018-09-22T13:40:27.021Z,94785.22
2018-09-22T13:42:55.777Z,94779.34
2018-09-22T13:45:24.484Z,94781.86
2018-09-22T13:47:53.316Z,94784.11
2018-09-22T13:50:22.106Z,94788.06
2018-09-22T13:52:50.830Z,94781.08
2018-09-22T13:55:20.402Z,94783.46
2018-09-22T13:57:49.075Z,94785.97
2018-09-22T14:00:19.103Z,94782.98
2018-09-22T14:02:47.774Z,94776.64
2018-09-22T14:05:16.527Z,94765.89
2018-09-22T14:07:45.197Z,94773.22
2018-09-22T14:10:14.139Z,94773.94
2018-09-22T14:12:42.828Z,94767.98
2018-09-22T14:15:11.549Z,94770.78
2018-09-22T14:17:40.267Z,94771.84
2018-09-22T14:20:09.009Z,94780.19
2018-09-22T14:22:37.802Z,94776.67
2018-09-22T14:25:06.605Z,94775.20
2018-09-22T14:27:35.857Z,94771.80
2018-09-22T14:30:06.250Z,94767.12
2018-09-22T14:32:35.118Z,94767.79
2018-09-22T14:35:03.960Z,94763.83
2018-09-22T14:37:32.623Z,94762.83
2018-09-22T14:40:01.424Z,94760.75
2018-09-22T14:42:30.216Z,94764.33
2018-09-22T14:44:58.966Z,94759.72
2018-09-22T14:47:27.782Z,94752.69
2018-09-22T14:49:56.486Z,94749.70
2018-09-22T14:52:25.208Z,94749.16
2018-09-22T14:54:53.899Z,94738.28
2018-09-22T14:57:22.602Z,94739.61
2018-09-22T14:59:51.276Z,94741.43
2018-09-22T15:02:20.030Z,94745.96
2018-09-22T15:04:48.784Z,94744.39
2018-09-22T15:07:17.606Z,94739.00
2018-09-22T15:09:46.383Z,94749.50
2018-09-22T15:12:15.069Z,94750.03
2018-09-22T15:14:43.813Z,94751.91
2018-09-22T15:17:12.592Z,94750.09
2018-09-22T15:19:41.368Z,94747.90
2018-09-22T15:22:10.139Z,94750.13
2018-09-22T15:24:38.885Z,94757.98
2018-09-22T15:27:07.663Z,94769.28
2018-09-22T15:29:36.375Z,94770.31
2018-09-22T15:32:05.097Z,94772.55
2018-09-22T15:34:33.870Z,94777.52
2018-09-22T15:37:02.681Z,94777.63
2018-09-22T15:39:31.355Z,94779.56
2018-09-22T15:42:00.174Z,94772.52
2018-09-22T15:44:28.960Z,94773.53
2018-09-22T15:46:57.659Z,94780.55
2018-09-22T15:49:26.396Z,94791.63
2018-09-22T15:51:55.070Z,94798.74
2018-09-22T15:54:23.868Z,94805.27
2018-09-22T15:56:52.554Z,94809.79
2018-09-22T15:59:21.213Z,94812.50
2018-09-22T16:01:49.915Z,94814.83
2018-09-22T16:04:18.631Z,94816.18
2018-09-22T16:06:47.365Z,94815.94
2018-09-22T16:09:16.033Z,94818.42
2018-09-22T16:11:44.803Z,94814.53
2018-09-22T16:14:13.553Z,94816.72
2018-09-22T16:16:42.234Z,94819.95
2018-09-22T16:19:10.944Z,94824.86
2018-09-22T16:21:39.732Z,94824.92
2018-09-22T16:24:08.620Z,94826.05
2018-09-22T16:26:37.293Z,94831.69
2018-09-22T16:29:06.040Z,94840.20
2018-09-22T16:31:34.815Z,94842.05
2018-09-22T16:34:03.719Z,94843.66
2018-09-22T16:36:32.445Z,94848.72
2018-09-22T16:39:01.156Z,94847.66
2018-09-22T16:41:29.923Z,94850.88
2018-09-22T16:43:58.802Z,94853.78
2018-09-22T16:46:27.518Z,94858.83
2018-09-22T16:48:56.313Z,94865.77
2018-09-22T16:51:25.049Z,94864.11
2018-09-22T16:53:53.735Z,94873.14
2018-09-22T16:56:23.043Z,94871.28
2018-09-22T16:58:51.831Z,94877.91
2018-09-22T17:01:20.519Z,94884.78
2018-09-22T17:03:49.279Z,94885.59
2018-09-22T17:06:18.194Z,94889.31
2018-09-22T17:08:46.973Z,94884.21
2018-09-22T17:11:15.654Z,94887.37
2018-09-22T17:13:44.539Z,94880.98
2018-09-22T17:16:13.257Z,94886.30
2018-09-22T17:18:41.920Z,94884.20
2018-09-22T17:21:10.671Z,94885.24
2018-09-22T17:23:39.466Z,94892.69
2018-09-22T17:26:08.206Z,94889.45
2018-09-22T17:28:37.330Z,94887.33
2018-09-22T17:31:06.150Z,94891.06
2018-09-22T17:33:34.904Z,94885.23
2018-09-22T17:36:03.664Z,94888.12
2018-09-22T17:38:32.359Z,94894.72
2018-09-22T17:41:01.221Z,94894.48
2018-09-22T17:43:29.895Z,94893.65
2018-09-22T17:45:59.156Z,94900.53
2018-09-22T17:48:27.928Z,94901.58
2018-09-22T17:50:56.670Z,94900.98
2018-09-22T17:53:25.478Z,94914.20
2018-09-22T17:55:54.382Z,94911.41
2018-09-22T17:58:23.305Z,94918.73
2018-09-22T18:00:52.137Z,94915.86
2018-09-22T18:03:20.926Z,94919.23
2018-09-22T18:05:49.655Z,94920.19
2018-09-22T18:08:18.605Z,94918.09
2018-09-22T18:10:47.336Z,94914.56
2018-09-22T18:13:16.156Z,94921.12
2018-09-22T18:15:45.004Z,94924.70
2018-09-22T18:18:13.683Z,94929.75
2018-09-22T18:20:42.396Z,94933.99
2018-09-22T18:23:11.102Z,94935.59
2018-09-22T18:25:39.915Z,94937.14
2018-09-22T18:28:08.578Z,94930.88
2018-09-22T18:30:37.280Z,94937.25
2018-09-22T18:33:06.036Z,94943.24
2018-09-22T18:35:34.923Z,94946.56
2018-09-22T18:38:03.616Z,94952.09
2018-09-22T18:40:32.278Z,94954.70
2018-09-22T18:43:01.112Z,94960.01
2018-09-22T18:45:29.967Z,94957.42
2018-09-22T18:47:58.718Z,94961.00
2018-09-22T18:50:27.460Z,94965.88
2018-09-22T18:52:56.207Z,94971.97
2018-09-22T18:55:25.061Z,94978.48
2018-09-22T18:57:53.753Z,94980.42
2018-09-22T19:00:23.821Z,94985.64
2018-09-22T19:02:52.637Z,94984.58
2018-09-22T19:05:21.361Z,95001.19
2018-09-22T19:07:50.051Z,94999.31
2018-09-22T19:10:18.828Z,94998.73
2018-09-22T19:12:47.609Z,95000.32
2018-09-22T19:15:52.415Z,95005.75
2018-09-22T19:18:26.356Z,95008.02
2018-09-22T19:20:58.460Z,95006.70
2018-09-22T19:23:33.470Z,95010.08
2018-09-22T19:26:06.259Z,95014.72
2018-09-22T19:28:40.772Z,95022.80
2018-09-22T19:31:13.152Z,95026.92
2018-09-22T19:33:47.973Z,95027.56
2018-09-22T19:36:21.689Z,95023.06
2018-09-22T19:38:55.594Z,95027.36
2018-09-22T19:41:43.362Z,95030.66
2018-09-22T19:44:24.610Z,95036.14
2018-09-22T19:47:30.218Z,95037.28
2018-09-22T19:50:04.668Z,95032.12
2018-09-22T19:52:43.684Z,95035.70
2018-09-22T19:55:12.447Z,95030.75
2018-09-22T19:57:41.180Z,95025.80
2018-09-22T20:00:13.394Z,95016.52
2018-09-22T20:02:42.719Z,95025.70
2018-09-22T20:05:11.387Z,95025.98
2018-09-22T20:07:40.160Z,95038.14
2018-09-22T20:10:09.529Z,95043.38
2018-09-22T20:12:38.321Z,95047.93
2018-09-22T20:15:07.070Z,95050.28
2018-09-22T20:17:35.799Z,95050.76
2018-09-22T20:20:04.688Z,95051.05
2018-09-22T20:22:33.377Z,95059.55
2018-09-22T20:25:02.072Z,95052.23
2018-09-22T20:27:30.750Z,95055.03
2018-09-22T20:30:00.539Z,95049.39
2018-09-22T20:32:29.428Z,95049.92
2018-09-22T20:34:58.122Z,95050.39
2018-09-22T20:37:26.812Z,95047.45
2018-09-22T20:39:55.517Z,95045.78
2018-09-22T20:44:59.360Z,95038.22
2018-09-22T20:47:28.030Z,95040.55
2018-09-22T20:49:56.748Z,95049.03
2018-09-22T20:52:25.461Z,95050.66
2018-09-22T20:54:54.162Z,95056.35
2018-09-22T20:57:22.895Z,95054.44
2018-09-22T20:59:51.716Z,95061.17
2018-09-22T21:02:20.393Z,95064.28
2018-09-22T21:04:49.093Z,95061.41
2018-09-22T21:07:17.782Z,95062.52
2018-09-22T21:09:46.497Z,95065.96
2018-09-22T21:12:15.159Z,95066.27
2018-09-22T21:14:43.831Z,95070.84
2018-09-22T21:17:12.518Z,95072.56
2018-09-22T21:19:41.212Z,95072.08
2018-09-22T21:22:09.983Z,95069.20
2018-09-22T21:24:38.720Z,95071.84
2018-09-22T21:27:07.390Z,95070.81
2018-09-22T21:29:36.103Z,95071.31
2018-09-22T21:32:04.811Z,95073.03
2018-09-22T21:34:33.528Z,95076.41
2018-09-22T21:37:02.266Z,95073.56
2018-09-22T21:39:30.980Z,95071.22
2018-09-22T21:41:59.785Z,95073.56
2018-09-22T21:44:28.396Z,95074.75
2018-09-22T21:46:57.069Z,95073.77
2018-09-22T21:49:25.840Z,95079.97
2018-09-22T21:51:54.569Z,95078.13
2018-09-22T21:54:23.273Z,95070.63
2018-09-22T21:56:52.008Z,95073.00
2018-09-22T21:59:20.672Z,95068.31
2018-09-22T22:01:49.358Z,95067.52
2018-09-22T22:04:18.079Z,95066.20
2018-09-22T22:06:46.829Z,95068.05
2018-09-22T22:09:15.897Z,95070.45
2018-09-22T22:11:45.540Z,95071.64
2018-09-22T22:14:14.220Z,95076.78
2018-09-22T22:16:42.906Z,95076.85
2018-09-22T22:19:11.661Z,95075.73
2018-09-22T22:21:40.343Z,95080.00
2018-09-22T22:24:09.019Z,95082.95
2018-09-22T22:26:37.681Z,95085.08
2018-09-22T22:29:06.579Z,95086.97
2018-09-22T22:31:35.297Z,95088.52
2018-09-22T22:34:04.075Z,95080.01
2018-09-22T22:36:32.760Z,95082.64
2018-09-22T22:39:01.424Z,95085.20
2018-09-22T22:41:30.236Z,95083.33
2018-09-22T22:43:58.926Z,95085.69
2018-09-22T22:46:27.610Z,95090.88
2018-09-22T22:48:56.362Z,95083.98
2018-09-22T22:51:25.046Z,95082.36
2018-09-22T22:53:53.787Z,95078.81
2018-09-22T22:56:22.568Z,95083.81
2018-09-22T22:58:51.228Z,95091.27
2018-09-22T23:01:20.013Z,95091.65
2018-09-22T23:03:48.754Z,95092.73
2018-09-22T23:06:17.443Z,95099.09
2018-09-22T23:08:46.208Z,95096.50
2018-09-22T23:11:14.952Z,95094.30
2018-09-22T23:13:43.700Z,95097.95
2018-09-22T23:16:12.398Z,95095.76
2018-09-22T23:18:41.057Z,95107.77
2018-09-22T23:21:09.842Z,95100.56
2018-09-22T23:23:38.548Z,95101.36
2018-09-22T23:26:07.293Z,95101.25
2018-09-22T23:28:36.028Z,95109.68
2018-09-22T23:31:04.677Z,95110.39
2018-09-22T23:33:33.416Z,95114.09
2018-09-22T23:36:02.270Z,95117.05
2018-09-22T23:38:31.241Z,95124.16
2018-09-22T23:41:00.038Z,95128.23
2018-09-22T23:43:28.768Z,95128.44
2018-09-22T23:45:57.423Z,95132.95
2018-09-22T23:48:26.129Z,95125.67
2018-09-22T23:50:54.965Z,95132.60
2018-09-22T23:53:23.595Z,95127.52
2018-09-22T23:55:52.300Z,95120.36
2018-09-22T23:58:20.948Z,95112.28
